Time;durP1;ratioP1;P1;durP2;ratioP2;P2;SDS_P1;SDS_P2;PMS_P1;PMS_P2;Temp;Humidity;BMP_temperature;BMP_pressure;BME280_temperature;BME280_humidity;BME280_pressure;Samples;Min_cycle;Max_cycle;Signal;HPM_P1;HPM_P2
2024/04/16 00:01:36;;;;;;;18.88;12.68;;;;;;;;;;5385813;26;20015;-64
2024/04/16 00:04:01;;;;;;;18.70;12.10;;;;;;;;;;5385706;26;20415;-64
2024/04/16 00:06:27;;;;;;;18.02;12.15;;;;;;;;;;5385695;26;20415;-64
2024/04/16 00:08:53;;;;;;;14.25;11.02;;;;;;;;;;5385699;26;19992;-63
2024/04/16 00:11:19;;;;;;;15.80;11.45;;;;;;;;;;5354491;26;20438;-63
2024/04/16 00:13:44;;;;;;;18.00;11.88;;;;;;;;;;5384664;26;20000;-63
2024/04/16 00:16:19;;;;;;;15.52;10.75;;;;;;;;;;5354304;26;20020;-65
2024/04/16 00:18:45;;;;;;;18.63;11.75;;;;;;;;;;5354524;26;20070;-65
2024/04/16 00:21:11;;;;;;;17.90;11.02;;;;;;;;;;5354665;26;20454;-65
2024/04/16 00:23:36;;;;;;;14.88;10.50;;;;;;;;;;5354484;26;20015;-65
2024/04/16 00:26:02;;;;;;;18.67;11.25;;;;;;;;;;5325599;26;20537;-64
2024/04/16 00:28:27;;;;;;;18.20;11.40;;;;;;;;;;5384969;26;20001;-64
2024/04/16 00:30:52;;;;;;;16.20;11.10;;;;;;;;;;5385212;26;19993;-64
2024/04/16 00:33:18;;;;;;;17.08;11.63;;;;;;;;;;5354248;26;20000;-64
2024/04/16 00:35:43;;;;;;;16.20;10.00;;;;;;;;;;5354163;26;20004;-64
2024/04/16 00:38:09;;;;;;;15.68;10.82;;;;;;;;;;5385523;26;19992;-64
2024/04/16 00:40:34;;;;;;;16.83;11.23;;;;;;;;;;5385081;26;20000;-64
2024/04/16 00:43:00;;;;;;;13.80;9.52;;;;;;;;;;5385211;26;20015;-65
2024/04/16 00:45:26;;;;;;;13.77;9.07;;;;;;;;;;5385134;26;20071;-64
2024/04/16 00:47:52;;;;;;;16.63;10.32;;;;;;;;;;5385096;26;19997;-64
2024/04/16 00:50:18;;;;;;;18.27;9.73;;;;;;;;;;5384983;26;20006;-63
2024/04/16 00:52:44;;;;;;;17.30;10.30;;;;;;;;;;5385071;26;19996;-63
2024/04/16 00:55:09;;;;;;;12.85;8.38;;;;;;;;;;5384457;26;20330;-63
2024/04/16 00:57:35;;;;;;;18.13;10.27;;;;;;;;;;5353984;26;20007;-63
2024/04/16 01:00:00;;;;;;;10.20;6.22;;;;;;;;;;5384909;26;20334;-63
2024/04/16 01:02:25;;;;;;;11.75;8.35;;;;;;;;;;5385192;26;20335;-63
2024/04/16 01:04:51;;;;;;;14.07;9.18;;;;;;;;;;5385141;26;19992;-63
2024/04/16 01:07:16;;;;;;;14.02;9.05;;;;;;;;;;5384875;26;20392;-63
2024/04/16 01:09:42;;;;;;;10.20;7.35;;;;;;;;;;5353916;26;20011;-63
2024/04/16 01:12:08;;;;;;;12.23;7.50;;;;;;;;;;5384850;26;20066;-63
2024/04/16 01:14:34;;;;;;;12.52;7.80;;;;;;;;;;5384648;26;20066;-63
2024/04/16 01:16:59;;;;;;;10.20;7.05;;;;;;;;;;5353645;26;20008;-63
2024/04/16 01:19:25;;;;;;;9.55;5.82;;;;;;;;;;5384725;26;19992;-63
2024/04/16 01:21:50;;;;;;;9.15;6.53;;;;;;;;;;5384221;26;20462;-63
2024/04/16 01:24:16;;;;;;;8.52;6.05;;;;;;;;;;5354042;26;20010;-63
2024/04/16 01:26:42;;;;;;;8.32;5.38;;;;;;;;;;5384541;26;20014;-63
2024/04/16 01:29:07;;;;;;;6.85;5.75;;;;;;;;;;5384558;26;19996;-63
2024/04/16 01:31:33;;;;;;;8.95;5.43;;;;;;;;;;5384435;26;20446;-62
2024/04/16 01:33:58;;;;;;;8.35;4.95;;;;;;;;;;5353520;26;20334;-62
2024/04/16 01:36:24;;;;;;;7.30;4.97;;;;;;;;;;5384454;26;20027;-62
2024/04/16 01:38:49;;;;;;;5.65;4.32;;;;;;;;;;5384390;26;20004;-62
2024/04/16 01:41:16;;;;;;;5.55;4.70;;;;;;;;;;5353394;26;19996;-62
2024/04/16 01:43:42;;;;;;;7.45;4.60;;;;;;;;;;5353490;26;19996;-62
2024/04/16 01:46:07;;;;;;;5.97;4.38;;;;;;;;;;5384295;26;20430;-62
2024/04/16 01:48:33;;;;;;;8.20;4.07;;;;;;;;;;5384291;26;19996;-62
2024/04/16 01:50:58;;;;;;;5.38;3.83;;;;;;;;;;5384135;26;20016;-63
2024/04/16 01:53:24;;;;;;;4.75;3.60;;;;;;;;;;5384126;26;19992;-63
2024/04/16 01:55:49;;;;;;;4.30;3.67;;;;;;;;;;5384157;26;20007;-63
2024/04/16 01:58:15;;;;;;;5.10;3.45;;;;;;;;;;5383767;26;20326;-63
2024/04/16 02:00:40;;;;;;;4.15;3.38;;;;;;;;;;5384101;26;19996;-63
2024/04/16 02:03:05;;;;;;;5.07;3.25;;;;;;;;;;5384030;26;20435;-63
2024/04/16 02:05:31;;;;;;;5.18;2.78;;;;;;;;;;5384119;26;20046;-63
2024/04/16 02:07:56;;;;;;;5.93;3.30;;;;;;;;;;5382894;26;20004;-63
2024/04/16 02:10:21;;;;;;;6.60;3.00;;;;;;;;;;5383873;26;20312;-63
2024/04/16 02:12:47;;;;;;;6.07;3.10;;;;;;;;;;5383944;26;19996;-62
2024/04/16 02:15:12;;;;;;;3.45;3.10;;;;;;;;;;5383937;26;20352;-63
2024/04/16 02:17:38;;;;;;;3.20;2.75;;;;;;;;;;5383906;26;20000;-63
2024/04/16 02:20:03;;;;;;;3.22;2.80;;;;;;;;;;5383798;26;20000;-63
2024/04/16 02:22:29;;;;;;;2.75;2.53;;;;;;;;;;5383735;26;20026;-62
2024/04/16 02:24:55;;;;;;;3.63;2.45;;;;;;;;;;5383770;26;20323;-63
2024/04/16 02:27:20;;;;;;;3.95;2.70;;;;;;;;;;5352762;26;19993;-62
2024/04/16 02:29:46;;;;;;;2.45;2.10;;;;;;;;;;5383601;26;19999;-62
2024/04/16 02:32:11;;;;;;;3.45;2.38;;;;;;;;;;5324015;26;20066;-62
2024/04/16 02:34:36;;;;;;;2.50;2.30;;;;;;;;;;5383544;26;20003;-63
2024/04/16 02:37:03;;;;;;;2.72;2.53;;;;;;;;;;5383473;26;20066;-63
2024/04/16 02:39:28;;;;;;;2.72;2.33;;;;;;;;;;5383908;26;19996;-63
2024/04/16 02:41:54;;;;;;;2.55;2.28;;;;;;;;;;5383880;26;20008;-63
2024/04/16 02:44:20;;;;;;;3.08;2.28;;;;;;;;;;5383483;26;20451;-63
2024/04/16 02:46:45;;;;;;;3.05;1.92;;;;;;;;;;5383400;26;20020;-63
2024/04/16 02:49:11;;;;;;;3.75;2.30;;;;;;;;;;5383396;26;19992;-63
2024/04/16 02:51:36;;;;;;;3.35;2.30;;;;;;;;;;5383263;26;19992;-62
2024/04/16 02:54:01;;;;;;;2.78;2.58;;;;;;;;;;5383347;26;20065;-63
2024/04/16 02:56:27;;;;;;;3.38;2.80;;;;;;;;;;5383329;26;20008;-62
2024/04/16 02:58:53;;;;;;;3.40;2.50;;;;;;;;;;5383168;26;19996;-63
2024/04/16 03:01:18;;;;;;;3.35;2.22;;;;;;;;;;5383239;26;20323;-63
2024/04/16 03:03:43;;;;;;;4.63;2.40;;;;;;;;;;5383173;26;20003;-62
2024/04/16 03:06:09;;;;;;;2.60;2.40;;;;;;;;;;5383185;26;19996;-62
2024/04/16 03:08:34;;;;;;;4.72;2.20;;;;;;;;;;5383090;26;19992;-62
2024/04/16 03:11:00;;;;;;;4.20;1.90;;;;;;;;;;5383006;26;20011;-63
2024/04/16 03:13:25;;;;;;;4.75;2.00;;;;;;;;;;5382838;26;20435;-63
2024/04/16 03:15:51;;;;;;;2.60;2.25;;;;;;;;;;5383059;26;20011;-63
2024/04/16 03:18:16;;;;;;;2.67;2.00;;;;;;;;;;5382556;26;20073;-64
2024/04/16 03:20:41;;;;;;;2.10;1.90;;;;;;;;;;5382909;26;20001;-64
2024/04/16 03:23:07;;;;;;;2.15;1.95;;;;;;;;;;5382787;26;20004;-64
2024/04/16 03:25:39;;;;;;;3.50;1.88;;;;;;;;;;5382865;26;19992;-64
2024/04/16 03:28:05;;;;;;;2.00;1.80;;;;;;;;;;5382753;26;20449;-65
2024/04/16 03:30:30;;;;;;;1.85;1.75;;;;;;;;;;5382977;26;20008;-63
2024/04/16 03:32:55;;;;;;;4.25;1.60;;;;;;;;;;5382741;26;20008;-64
2024/04/16 03:35:21;;;;;;;1.98;1.60;;;;;;;;;;5382755;26;20330;-63
2024/04/16 03:37:47;;;;;;;3.40;1.30;;;;;;;;;;5382477;26;20338;-63
2024/04/16 03:40:13;;;;;;;1.80;1.70;;;;;;;;;;5382918;26;20011;-63
2024/04/16 03:42:38;;;;;;;2.72;1.80;;;;;;;;;;5382709;26;20385;-63
2024/04/16 03:45:04;;;;;;;2.70;1.80;;;;;;;;;;5382901;26;20011;-63
2024/04/16 03:47:29;;;;;;;2.17;1.88;;;;;;;;;;5382793;26;20000;-63
2024/04/16 03:49:54;;;;;;;4.88;2.00;;;;;;;;;;5351687;26;19993;-63
2024/04/16 03:52:20;;;;;;;4.00;1.45;;;;;;;;;;5382772;26;19993;-63
2024/04/16 03:54:45;;;;;;;4.57;1.48;;;;;;;;;;5382379;26;19992;-63
2024/04/16 03:57:11;;;;;;;1.40;1.30;;;;;;;;;;5382652;26;20004;-63
2024/04/16 04:02:20;;;;;;;2.03;1.08;;;;;;;;;;5382526;26;19998;-63
2024/04/16 04:04:45;;;;;;;1.40;1.10;;;;;;;;;;5382514;26;20006;-63
2024/04/16 04:07:11;;;;;;;3.63;1.15;;;;;;;;;;5382209;26;19996;-63
2024/04/16 04:09:36;;;;;;;2.83;1.25;;;;;;;;;;5381973;26;20004;-62
2024/04/16 04:12:02;;;;;;;1.50;0.90;;;;;;;;;;5382002;26;20004;-62
2024/04/16 04:14:27;;;;;;;1.50;0.82;;;;;;;;;;5382038;26;20431;-62
2024/04/16 04:16:53;;;;;;;0.90;0.90;;;;;;;;;;5381958;26;20320;-62
2024/04/16 04:19:19;;;;;;;3.05;0.88;;;;;;;;;;5381953;26;20385;-63
2024/04/16 04:21:44;;;;;;;0.80;0.80;;;;;;;;;;5381448;26;19992;-62
2024/04/16 04:24:15;;;;;;;3.20;1.17;;;;;;;;;;5381893;26;20065;-62
2024/04/16 04:26:40;;;;;;;3.13;0.80;;;;;;;;;;5381635;26;20334;-63
2024/04/16 04:29:05;;;;;;;2.38;0.88;;;;;;;;;;5381689;26;20003;-62
2024/04/16 04:31:31;;;;;;;0.65;0.65;;;;;;;;;;5384589;26;20000;-62
2024/04/16 04:33:56;;;;;;;0.80;0.80;;;;;;;;;;5385331;26;20433;-63
2024/04/16 04:36:22;;;;;;;1.73;0.73;;;;;;;;;;5342795;26;20308;-62
2024/04/16 04:38:47;;;;;;;2.90;0.70;;;;;;;;;;5350605;26;20004;-62
2024/04/16 04:41:12;;;;;;;2.97;0.60;;;;;;;;;;5350583;26;20066;-62
2024/04/16 04:43:38;;;;;;;1.90;0.68;;;;;;;;;;5350517;26;20005;-62
2024/04/16 04:46:03;;;;;;;1.45;0.60;;;;;;;;;;5350763;26;20007;-62
2024/04/16 04:48:29;;;;;;;0.57;0.50;;;;;;;;;;5350446;26;20008;-62
2024/04/16 04:50:54;;;;;;;0.70;0.45;;;;;;;;;;5350362;26;20084;-62
2024/04/16 04:53:20;;;;;;;3.50;0.60;;;;;;;;;;5350080;26;19993;-62
2024/04/16 04:55:46;;;;;;;1.80;0.60;;;;;;;;;;5348896;26;20013;-63
2024/04/16 04:58:11;;;;;;;1.65;0.57;;;;;;;;;;5347929;26;19997;-62
2024/04/16 05:00:37;;;;;;;0.52;0.50;;;;;;;;;;5347567;26;19993;-63
2024/04/16 05:03:03;;;;;;;0.45;0.40;;;;;;;;;;5348162;26;19997;-63
2024/04/16 05:05:30;;;;;;;0.80;0.70;;;;;;;;;;5348844;26;19993;-63
2024/04/16 05:07:55;;;;;;;0.70;0.60;;;;;;;;;;5348715;26;20011;-63
2024/04/16 05:10:20;;;;;;;0.77;0.60;;;;;;;;;;5348840;26;20001;-62
2024/04/16 05:12:46;;;;;;;0.63;0.60;;;;;;;;;;5349547;26;20462;-62
2024/04/16 05:15:12;;;;;;;0.50;0.50;;;;;;;;;;5349440;26;20000;-62
2024/04/16 05:17:37;;;;;;;0.52;0.52;;;;;;;;;;5319203;26;20000;-62
2024/04/16 05:20:03;;;;;;;0.70;0.60;;;;;;;;;;5318974;26;20000;-61
2024/04/16 05:22:28;;;;;;;0.30;0.30;;;;;;;;;;5349554;26;19992;-62
2024/04/16 05:24:53;;;;;;;0.50;0.50;;;;;;;;;;5349070;26;19989;-62
2024/04/16 05:27:19;;;;;;;0.63;0.60;;;;;;;;;;5349156;26;20000;-62
2024/04/16 05:29:44;;;;;;;0.50;0.50;;;;;;;;;;5349137;26;20067;-62
2024/04/16 05:32:12;;;;;;;1.15;0.50;;;;;;;;;;5349334;26;20067;-62
2024/04/16 05:34:38;;;;;;;0.65;0.60;;;;;;;;;;5349038;26;20441;-62
2024/04/16 05:37:03;;;;;;;0.50;0.50;;;;;;;;;;5370368;26;20003;-62
2024/04/16 05:39:29;;;;;;;2.22;0.65;;;;;;;;;;5353068;26;20099;-62
2024/04/16 05:41:54;;;;;;;0.60;0.60;;;;;;;;;;5384170;26;20003;-62
2024/04/16 05:44:20;;;;;;;0.90;0.50;;;;;;;;;;5384017;26;20065;-62
2024/04/16 05:46:45;;;;;;;1.88;0.65;;;;;;;;;;5383948;26;20000;-62
2024/04/16 05:49:11;;;;;;;2.08;0.60;;;;;;;;;;5324293;26;20445;-62
2024/04/16 05:51:36;;;;;;;1.60;0.68;;;;;;;;;;5383763;26;19992;-62
2024/04/16 05:54:06;;;;;;;1.52;0.70;;;;;;;;;;5383861;26;20320;-63
2024/04/16 05:56:31;;;;;;;2.53;0.98;;;;;;;;;;5352715;26;20003;-62
2024/04/16 05:58:57;;;;;;;1.05;0.68;;;;;;;;;;5384245;26;20004;-62
2024/04/16 06:01:22;;;;;;;0.57;0.57;;;;;;;;;;5383724;26;19996;-62
2024/04/16 06:03:48;;;;;;;2.50;0.60;;;;;;;;;;5383884;26;19996;-62
2024/04/16 06:06:13;;;;;;;2.33;0.65;;;;;;;;;;5383682;26;20066;-62
2024/04/16 06:08:38;;;;;;;0.60;0.60;;;;;;;;;;5383656;26;19996;-62
2024/04/16 06:11:04;;;;;;;1.17;0.52;;;;;;;;;;5383651;26;19996;-62
2024/04/16 06:13:29;;;;;;;0.60;0.60;;;;;;;;;;5383596;26;20004;-62
2024/04/16 06:15:55;;;;;;;2.13;0.50;;;;;;;;;;5383595;26;19992;-62
2024/04/16 06:18:20;;;;;;;2.75;0.50;;;;;;;;;;5383451;26;19997;-63
2024/04/16 06:20:46;;;;;;;2.75;0.70;;;;;;;;;;5383276;26;19997;-62
2024/04/16 06:23:11;;;;;;;0.70;0.50;;;;;;;;;;5383572;26;19997;-62
2024/04/16 06:25:38;;;;;;;2.17;0.68;;;;;;;;;;5383427;26;19992;-62
2024/04/16 06:28:04;;;;;;;1.10;0.63;;;;;;;;;;5383103;26;20070;-56
2024/04/16 06:30:29;;;;;;;1.25;0.50;;;;;;;;;;5383534;26;20007;-62
2024/04/16 06:32:55;;;;;;;1.13;0.60;;;;;;;;;;5383666;26;19997;-62
2024/04/16 06:35:20;;;;;;;2.75;0.80;;;;;;;;;;5383487;26;20000;-62
2024/04/16 06:37:46;;;;;;;0.52;0.52;;;;;;;;;;5320919;26;20001;-54
2024/04/16 06:40:11;;;;;;;2.63;0.68;;;;;;;;;;5348881;26;19992;-54
2024/04/16 06:42:37;;;;;;;1.88;0.68;;;;;;;;;;5348908;26;20027;-54
2024/04/16 06:45:03;;;;;;;2.35;0.60;;;;;;;;;;5348600;26;20005;-61
2024/04/16 06:47:28;;;;;;;1.27;0.75;;;;;;;;;;5348594;26;20036;-61
2024/04/16 06:49:54;;;;;;;0.60;0.60;;;;;;;;;;5348382;26;20001;-61
2024/04/16 06:52:19;;;;;;;0.80;0.70;;;;;;;;;;5348120;26;20013;-61
2024/04/16 06:54:46;;;;;;;1.05;0.70;;;;;;;;;;5347956;26;20003;-61
2024/04/16 06:57:12;;;;;;;1.83;0.60;;;;;;;;;;5317929;26;20331;-61
2024/04/16 06:59:37;;;;;;;0.63;0.60;;;;;;;;;;5348635;26;19993;-61
2024/04/16 07:02:02;;;;;;;0.77;0.60;;;;;;;;;;5348559;26;20072;-61
2024/04/16 07:04:28;;;;;;;0.93;0.80;;;;;;;;;;5317953;26;19997;-61
2024/04/16 07:06:54;;;;;;;0.95;0.60;;;;;;;;;;5348187;26;20347;-61
2024/04/16 07:09:19;;;;;;;1.92;0.60;;;;;;;;;;5347951;26;19993;-63
2024/04/16 07:11:45;;;;;;;0.85;0.70;;;;;;;;;;5317296;26;19997;-63
2024/04/16 07:14:10;;;;;;;1.25;0.75;;;;;;;;;;5348194;26;20066;-62
2024/04/16 07:16:36;;;;;;;2.15;0.70;;;;;;;;;;5348083;26;20444;-62
2024/04/16 07:19:01;;;;;;;1.33;0.60;;;;;;;;;;5348062;26;19993;-62
2024/04/16 07:21:26;;;;;;;0.73;0.70;;;;;;;;;;5348046;26;19994;-62
2024/04/16 07:23:53;;;;;;;1.33;0.52;;;;;;;;;;5317636;26;20009;-62
2024/04/16 07:26:18;;;;;;;1.65;0.82;;;;;;;;;;5347925;26;20008;-62
2024/04/16 07:28:44;;;;;;;1.50;0.75;;;;;;;;;;5347914;26;19997;-62
2024/04/16 07:31:09;;;;;;;2.00;1.15;;;;;;;;;;5347768;26;20005;-62
2024/04/16 07:33:35;;;;;;;1.08;0.98;;;;;;;;;;5347831;26;20008;-62
2024/04/16 07:36:08;;;;;;;1.58;0.90;;;;;;;;;;5323503;26;20516;-62
2024/04/16 07:38:33;;;;;;;1.13;0.80;;;;;;;;;;5383063;26;20000;-62
2024/04/16 07:40:59;;;;;;;2.05;1.10;;;;;;;;;;5352032;26;20011;-62
2024/04/16 07:43:24;;;;;;;1.25;0.93;;;;;;;;;;5382867;26;19992;-62
2024/04/16 07:45:50;;;;;;;1.70;1.00;;;;;;;;;;5382899;26;20015;-62
2024/04/16 07:48:15;;;;;;;0.70;0.68;;;;;;;;;;5382795;26;20342;-62
2024/04/16 07:50:44;;;;;;;0.70;0.70;;;;;;;;;;5383001;26;19996;-62
2024/04/16 07:53:09;;;;;;;1.35;0.60;;;;;;;;;;5382747;26;20024;-62
2024/04/16 07:55:35;;;;;;;1.17;0.80;;;;;;;;;;5382682;26;20058;-62
2024/04/16 07:58:00;;;;;;;0.75;0.75;;;;;;;;;;5351463;26;20008;-62
2024/04/16 08:00:28;;;;;;;0.85;0.80;;;;;;;;;;5382048;26;19997;-62
2024/04/16 08:02:54;;;;;;;1.55;0.80;;;;;;;;;;5382142;26;20054;-62
2024/04/16 08:05:20;;;;;;;1.63;0.80;;;;;;;;;;5383417;26;20000;-62
2024/04/16 08:07:45;;;;;;;1.05;0.95;;;;;;;;;;5385739;26;20449;-62
2024/04/16 08:10:11;;;;;;;1.10;0.90;;;;;;;;;;5385049;26;20520;-62
2024/04/16 08:12:36;;;;;;;2.00;0.80;;;;;;;;;;5385378;26;20431;-62
2024/04/16 08:15:04;;;;;;;0.98;0.77;;;;;;;;;;5385321;26;20000;-62
2024/04/16 08:17:29;;;;;;;0.95;0.85;;;;;;;;;;5385328;26;19996;-62
2024/04/16 08:19:54;;;;;;;0.77;0.77;;;;;;;;;;5385232;26;20066;-62
2024/04/16 08:22:20;;;;;;;0.75;0.75;;;;;;;;;;5354599;26;20008;-62
2024/04/16 08:24:45;;;;;;;1.27;0.80;;;;;;;;;;5385106;26;19992;-62
2024/04/16 08:27:11;;;;;;;1.33;1.02;;;;;;;;;;5385466;26;20011;-62
2024/04/16 08:29:37;;;;;;;1.23;1.00;;;;;;;;;;5384952;26;20424;-61
2024/04/16 08:32:03;;;;;;;0.73;0.70;;;;;;;;;;5385356;26;20330;-61
2024/04/16 08:34:28;;;;;;;1.63;0.90;;;;;;;;;;5354508;26;20000;-62
2024/04/16 08:36:54;;;;;;;2.55;1.10;;;;;;;;;;5384922;26;20003;-62
2024/04/16 08:39:19;;;;;;;0.80;0.80;;;;;;;;;;5385286;26;19996;-61
2024/04/16 08:41:44;;;;;;;0.82;0.68;;;;;;;;;;5385257;26;20311;-61
2024/04/16 08:44:11;;;;;;;1.10;1.00;;;;;;;;;;5385142;26;20000;-62
2024/04/16 08:46:37;;;;;;;2.00;1.13;;;;;;;;;;5385098;26;20446;-62
2024/04/16 08:49:04;;;;;;;0.80;0.80;;;;;;;;;;5385171;26;20074;-62
2024/04/16 08:51:29;;;;;;;2.80;0.90;;;;;;;;;;5385140;26;20433;-62
2024/04/16 08:53:55;;;;;;;0.85;0.80;;;;;;;;;;5384965;26;20007;-63
2024/04/16 08:56:21;;;;;;;1.58;1.00;;;;;;;;;;5354560;26;20000;-62
2024/04/16 08:58:47;;;;;;;1.95;0.80;;;;;;;;;;5385330;26;20006;-62
2024/04/16 09:01:15;;;;;;;1.73;0.95;;;;;;;;;;5385275;26;20296;-62
2024/04/16 09:03:42;;;;;;;1.05;0.70;;;;;;;;;;5385302;26;19996;-62
2024/04/16 09:06:08;;;;;;;2.17;0.77;;;;;;;;;;5385108;26;20049;-63
2024/04/16 09:08:35;;;;;;;1.77;0.85;;;;;;;;;;5384971;26;20009;-63
2024/04/16 09:11:00;;;;;;;2.38;0.60;;;;;;;;;;5384802;26;20036;-62
2024/04/16 09:13:26;;;;;;;1.20;0.80;;;;;;;;;;5385065;26;19998;-62
2024/04/16 09:15:51;;;;;;;0.63;0.63;;;;;;;;;;5384152;26;20439;-62
2024/04/16 09:18:23;;;;;;;1.55;0.88;;;;;;;;;;5384981;26;20011;-63
2024/04/16 09:20:48;;;;;;;1.35;0.80;;;;;;;;;;5384727;26;19996;-64
2024/04/16 09:23:14;;;;;;;1.60;0.70;;;;;;;;;;5384667;26;20007;-65
2024/04/16 09:25:42;;;;;;;0.98;0.70;;;;;;;;;;5353666;26;20012;-63
2024/04/16 09:28:07;;;;;;;2.63;0.93;;;;;;;;;;5384537;26;20028;-63
2024/04/16 09:30:33;;;;;;;1.13;0.63;;;;;;;;;;5384448;26;20003;-63
2024/04/16 09:32:59;;;;;;;0.73;0.55;;;;;;;;;;5384505;26;20010;-64
2024/04/16 09:35:25;;;;;;;1.15;0.82;;;;;;;;;;5384545;26;20028;-64
2024/04/16 09:37:58;;;;;;;0.55;0.50;;;;;;;;;;5383999;26;20019;-64
2024/04/16 09:40:26;;;;;;;1.20;0.80;;;;;;;;;;5384064;26;20082;-64
2024/04/16 09:42:52;;;;;;;1.48;1.08;;;;;;;;;;5381649;26;20074;-64
2024/04/16 09:45:18;;;;;;;3.08;1.40;;;;;;;;;;5381453;26;20004;-64
2024/04/16 09:47:45;;;;;;;1.30;1.20;;;;;;;;;;5380544;26;20000;-64
2024/04/16 09:50:11;;;;;;;1.10;1.00;;;;;;;;;;5380257;26;20014;-64
2024/04/16 09:52:36;;;;;;;1.30;1.00;;;;;;;;;;5380197;26;19992;-64
2024/04/16 09:55:02;;;;;;;1.33;0.85;;;;;;;;;;5379859;26;20009;-64
2024/04/16 09:57:28;;;;;;;1.00;0.65;;;;;;;;;;5350796;26;20342;-64
2024/04/16 09:59:55;;;;;;;1.35;0.90;;;;;;;;;;5353074;26;20067;-64
2024/04/16 10:02:21;;;;;;;0.70;0.68;;;;;;;;;;5353369;26;20008;-64
2024/04/16 10:04:47;;;;;;;1.90;0.70;;;;;;;;;;5353134;26;19996;-64
2024/04/16 10:07:12;;;;;;;0.57;0.50;;;;;;;;;;5384069;26;20339;-64
2024/04/16 10:09:39;;;;;;;0.82;0.70;;;;;;;;;;5383959;26;20001;-64
2024/04/16 10:12:05;;;;;;;1.55;0.73;;;;;;;;;;5384033;26;20000;-64
2024/04/16 10:14:30;;;;;;;0.60;0.60;;;;;;;;;;5383977;26;20032;-65
2024/04/16 10:16:55;;;;;;;1.85;1.20;;;;;;;;;;5383959;26;20419;-64
2024/04/16 10:19:28;;;;;;;0.50;0.50;;;;;;;;;;5383868;26;20418;-64
2024/04/16 10:21:59;;;;;;;0.63;0.52;;;;;;;;;;5383577;26;20352;-64
2024/04/16 10:24:26;;;;;;;3.38;1.33;;;;;;;;;;5352147;26;20440;-64
2024/04/16 10:26:56;;;;;;;1.50;1.05;;;;;;;;;;5383763;26;20423;-64
2024/04/16 10:29:25;;;;;;;3.50;0.82;;;;;;;;;;5322886;26;20011;-59
2024/04/16 10:31:58;;;;;;;1.98;0.85;;;;;;;;;;5359321;21;19996;-62
2024/04/16 10:34:26;;;;;;;3.80;0.75;;;;;;;;;;5312914;21;20004;-59
2024/04/16 10:36:53;;;;;;;1.85;0.88;;;;;;;;;;5383856;21;22003;-64
2024/04/16 10:42:26;;;;;;;1.90;0.93;;;;;;;;;;5385852;21;20080;-62
2024/04/16 10:44:52;;;;;;;1.42;1.27;;;;;;;;;;5367727;21;20000;-59
2024/04/16 10:47:17;;;;;;;2.67;1.80;;;;;;;;;;5365991;21;20100;-64
2024/04/16 10:49:43;;;;;;;1.67;1.40;;;;;;;;;;5383732;26;20004;-64
2024/04/16 10:52:10;;;;;;;0.75;0.75;;;;;;;;;;5352481;26;20008;-64
2024/04/16 10:54:35;;;;;;;2.75;1.00;;;;;;;;;;5384004;26;20011;-64
2024/04/16 10:57:01;;;;;;;2.42;1.17;;;;;;;;;;5383738;26;20004;-60
2024/04/16 10:59:27;;;;;;;2.58;1.00;;;;;;;;;;5383405;26;20073;-59
2024/04/16 11:01:52;;;;;;;1.88;1.15;;;;;;;;;;5352880;26;20323;-59
2024/04/16 11:04:18;;;;;;;3.00;0.82;;;;;;;;;;5383575;26;20000;-59
2024/04/16 11:06:45;;;;;;;0.55;0.55;;;;;;;;;;5352782;26;19996;-59
2024/04/16 11:09:10;;;;;;;0.90;0.80;;;;;;;;;;5383436;26;19996;-59
2024/04/16 11:11:36;;;;;;;2.88;0.90;;;;;;;;;;5352469;26;20364;-59
2024/04/16 11:14:02;;;;;;;2.63;0.85;;;;;;;;;;5352664;26;20004;-59
2024/04/16 11:16:28;;;;;;;4.93;0.90;;;;;;;;;;5383364;26;20445;-59
2024/04/16 11:18:53;;;;;;;3.33;0.90;;;;;;;;;;5383395;26;19992;-59
2024/04/16 11:21:20;;;;;;;3.63;1.50;;;;;;;;;;5383407;26;20376;-59
2024/04/16 11:23:45;;;;;;;0.98;0.70;;;;;;;;;;5352360;26;20004;-59
2024/04/16 11:26:11;;;;;;;1.05;0.70;;;;;;;;;;5352329;26;19992;-59
2024/04/16 11:28:40;;;;;;;2.13;0.93;;;;;;;;;;5383131;26;20004;-59
2024/04/16 11:31:05;;;;;;;1.77;0.90;;;;;;;;;;5351913;26;20008;-59
2024/04/16 11:33:33;;;;;;;1.02;0.70;;;;;;;;;;5383112;26;19992;-60
2024/04/16 11:36:01;;;;;;;1.98;1.02;;;;;;;;;;5382773;26;20011;-59
2024/04/16 11:38:27;;;;;;;1.43;0.93;;;;;;;;;;5382689;26;20011;-60
2024/04/16 11:40:53;;;;;;;1.35;0.73;;;;;;;;;;5385889;26;20000;-59
2024/04/16 11:43:18;;;;;;;1.55;1.20;;;;;;;;;;5386117;26;19996;-59
2024/04/16 11:45:44;;;;;;;3.10;1.10;;;;;;;;;;5385863;26;19996;-60
2024/04/16 11:48:11;;;;;;;2.40;1.35;;;;;;;;;;5385935;26;20327;-59
2024/04/16 11:50:36;;;;;;;1.75;1.10;;;;;;;;;;5385673;26;20433;-59
2024/04/16 11:53:02;;;;;;;2.05;1.20;;;;;;;;;;5385915;26;19992;-59
2024/04/16 11:55:27;;;;;;;1.38;1.00;;;;;;;;;;5385853;26;20000;-59
2024/04/16 11:57:52;;;;;;;1.02;0.90;;;;;;;;;;5354722;26;20386;-59
2024/04/16 12:00:18;;;;;;;1.92;1.35;;;;;;;;;;5354735;26;20000;-59
2024/04/16 12:02:43;;;;;;;3.35;0.85;;;;;;;;;;5354586;26;20348;-59
2024/04/16 12:05:09;;;;;;;1.20;1.10;;;;;;;;;;5354813;26;20007;-59
2024/04/16 12:07:34;;;;;;;2.08;1.02;;;;;;;;;;5385726;26;20303;-59
2024/04/16 12:09:59;;;;;;;2.17;1.13;;;;;;;;;;5325295;26;19992;-60
2024/04/16 12:12:25;;;;;;;1.52;0.77;;;;;;;;;;5385635;26;19999;-59
2024/04/16 12:14:50;;;;;;;1.92;0.50;;;;;;;;;;5385475;26;20004;-60
2024/04/16 12:17:16;;;;;;;3.90;1.05;;;;;;;;;;5381705;26;20008;-60
2024/04/16 12:19:41;;;;;;;2.20;2.00;;;;;;;;;;5381679;26;20422;-59
2024/04/16 12:22:06;;;;;;;4.00;2.00;;;;;;;;;;5350677;26;20444;-60
2024/04/16 12:24:32;;;;;;;3.42;1.50;;;;;;;;;;5350172;26;20000;-59
2024/04/16 12:26:57;;;;;;;3.58;1.67;;;;;;;;;;5384559;26;20087;-59
2024/04/16 12:29:23;;;;;;;4.72;2.08;;;;;;;;;;5385720;26;20066;-59
2024/04/16 12:31:48;;;;;;;3.40;1.20;;;;;;;;;;5354368;26;20000;-59
2024/04/16 12:34:14;;;;;;;3.22;1.35;;;;;;;;;;5384297;26;20441;-57
2024/04/16 12:36:39;;;;;;;4.55;1.95;;;;;;;;;;5385073;26;19993;-57
2024/04/16 12:39:05;;;;;;;3.00;1.40;;;;;;;;;;5353947;26;20007;-57
2024/04/16 12:41:30;;;;;;;2.83;2.03;;;;;;;;;;5384995;26;20079;-58
2024/04/16 12:43:55;;;;;;;3.60;1.50;;;;;;;;;;5384797;26;20002;-64
2024/04/16 12:46:21;;;;;;;5.18;2.22;;;;;;;;;;5353940;26;19997;-58
2024/04/16 12:48:50;;;;;;;3.83;2.35;;;;;;;;;;5384985;26;19992;-64
2024/04/16 12:51:15;;;;;;;4.00;1.98;;;;;;;;;;5383922;26;20008;-64
2024/04/16 12:53:41;;;;;;;4.75;2.78;;;;;;;;;;5384732;26;19996;-58
2024/04/16 12:56:08;;;;;;;3.45;2.13;;;;;;;;;;5324925;26;20312;-58
2024/04/16 12:58:34;;;;;;;4.25;1.95;;;;;;;;;;5384797;26;20070;-58
2024/04/16 13:00:59;;;;;;;4.35;2.55;;;;;;;;;;5385041;26;20004;-58
2024/04/16 13:03:25;;;;;;;4.20;1.98;;;;;;;;;;5384729;26;20160;-58
2024/04/16 13:05:50;;;;;;;4.25;2.10;;;;;;;;;;5384669;26;20011;-58
2024/04/16 13:08:15;;;;;;;4.30;1.88;;;;;;;;;;5384668;26;20011;-58
2024/04/16 13:10:41;;;;;;;4.20;2.33;;;;;;;;;;5324771;26;20015;-60
2024/04/16 13:13:06;;;;;;;3.75;1.90;;;;;;;;;;5384687;26;20449;-59
2024/04/16 13:15:32;;;;;;;4.63;1.88;;;;;;;;;;5384423;26;19992;-59
2024/04/16 13:17:58;;;;;;;4.28;2.30;;;;;;;;;;5384565;26;20074;-59
2024/04/16 13:20:24;;;;;;;5.07;1.88;;;;;;;;;;5353825;26;20008;-59
2024/04/16 13:22:50;;;;;;;3.20;1.40;;;;;;;;;;5384421;26;19996;-59
2024/04/16 13:25:15;;;;;;;3.25;2.05;;;;;;;;;;5384387;26;20002;-59
2024/04/16 13:27:41;;;;;;;4.70;2.05;;;;;;;;;;5384281;26;19993;-57
2024/04/16 13:30:06;;;;;;;5.05;1.63;;;;;;;;;;5384216;26;20000;-63
2024/04/16 13:32:32;;;;;;;6.63;1.85;;;;;;;;;;5384267;26;20000;-63
2024/04/16 13:34:57;;;;;;;2.45;1.70;;;;;;;;;;5384470;26;20011;-63
2024/04/16 13:37:22;;;;;;;2.58;1.55;;;;;;;;;;5384311;26;20065;-63
2024/04/16 13:39:48;;;;;;;2.75;1.70;;;;;;;;;;5384096;26;20007;-63
2024/04/16 13:42:13;;;;;;;2.03;1.60;;;;;;;;;;5384334;26;20007;-63
2024/04/16 13:44:39;;;;;;;2.25;1.50;;;;;;;;;;5384033;26;20010;-63
2024/04/16 13:47:04;;;;;;;2.08;1.35;;;;;;;;;;5383927;26;20008;-63
2024/04/16 13:49:30;;;;;;;2.80;1.40;;;;;;;;;;5384297;26;19996;-67
2024/04/16 13:51:55;;;;;;;2.28;1.63;;;;;;;;;;5384212;26;20024;-66
2024/04/16 13:54:20;;;;;;;3.67;1.38;;;;;;;;;;5353381;26;20000;-60
2024/04/16 13:56:46;;;;;;;2.10;1.50;;;;;;;;;;5353225;26;20477;-60
2024/04/16 13:59:11;;;;;;;2.45;1.58;;;;;;;;;;5384504;26;20003;-59
2024/04/16 14:01:37;;;;;;;2.50;1.63;;;;;;;;;;5384398;26;20002;-60
2024/04/16 14:04:02;;;;;;;2.88;1.50;;;;;;;;;;5382884;26;19996;-59
2024/04/16 14:06:28;;;;;;;1.50;1.40;;;;;;;;;;5353459;26;20077;-60
2024/04/16 14:08:53;;;;;;;1.90;1.20;;;;;;;;;;5384383;26;20003;-59
2024/04/16 14:11:18;;;;;;;2.63;1.30;;;;;;;;;;5384369;26;20011;-59
2024/04/16 14:13:44;;;;;;;1.83;1.30;;;;;;;;;;5384362;26;20004;-59
2024/04/16 14:16:09;;;;;;;2.30;1.60;;;;;;;;;;5384278;26;20002;-60
2024/04/16 14:18:35;;;;;;;2.40;1.50;;;;;;;;;;5353000;26;20000;-60
2024/04/16 14:21:01;;;;;;;1.40;1.30;;;;;;;;;;5384283;26;20000;-59
2024/04/16 14:23:26;;;;;;;4.45;1.40;;;;;;;;;;5384110;26;19996;-60
2024/04/16 14:25:51;;;;;;;2.78;1.27;;;;;;;;;;5384181;26;19996;-60
2024/04/16 14:28:17;;;;;;;2.25;1.13;;;;;;;;;;5383813;26;19997;-59
2024/04/16 14:30:42;;;;;;;1.02;0.98;;;;;;;;;;5383959;26;20316;-60
2024/04/16 14:33:08;;;;;;;1.55;1.00;;;;;;;;;;5384073;26;20435;-66
2024/04/16 14:35:33;;;;;;;2.13;1.42;;;;;;;;;;5384072;26;20000;-67
2024/04/16 14:37:59;;;;;;;2.95;1.30;;;;;;;;;;5383701;26;20042;-66